Terminal Aerodrome Forecast
Issued by NWS

Home | Current Version | Previous Version | Text Only | Print | Product List | Glossary On
Versions: 1 2 3 4 5 6 7 8 9 10 11 12 13 14 15 16 17 18 19 20
000
FTUS43 KILX 290500 AAA
TAFDEC
TAF AMD
KDEC 290542Z 2906/3006 00000KT P6SM SCT250
     FM291000 00000KT 5SM BR SCT250
     FM291500 05006KT P6SM SCT120
     FM300300 02005KT P6SM BKN025=

USA.gov is the U.S. government's official web portal to all federal, state and local government web resources and services.